Terminal Aerodrome Forecast
Issued by NWS

Home | Current Version | Previous Version | Text Only | Print | Product List | Glossary On
Versions: 1 2 3 4 5 6 7 8 9 10 11 12 13
000
FTUS42 KTBW 272300
TAFLAL
TAF
KLAL 272338Z 2800/2824 VRB03KT P6SM SCT030 BKN250
     FM280300 00000KT P6SM SCT015 BKN025
     FM280600 00000KT 4SM BR SCT005 BKN020
      TEMPO 2808/2812 1/2SM FG BKN005
     FM281200 00000KT 1SM BR OVC005
     FM281400 18004KT 5SM BR SCT005 BKN015
     FM281700 22005KT P6SM BKN025
      AMD NOT SKED 2803/2812=

USA.gov is the U.S. government's official web portal to all federal, state and local government web resources and services.